sensor_id;sensor_type;location;lat;lon;timestamp;pressure;altitude;pressure_sealevel;temperature;humidity
70902;BME280;58548;47.210;8.618;2023-08-12T00:02:02;94558.59;;;27.17;39.94
70902;BME280;58548;47.210;8.618;2023-08-12T00:04:28;94559.97;;;27.15;39.41
70902;BME280;58548;47.210;8.618;2023-08-12T00:06:56;94585.34;;;27.28;39.90
70902;BME280;58548;47.210;8.618;2023-08-12T00:09:24;94552.78;;;27.10;38.97
70902;BME280;58548;47.210;8.618;2023-08-12T00:11:51;94574.34;;;27.24;40.13
70902;BME280;58548;47.210;8.618;2023-08-12T00:14:22;94527.72;;;26.96;39.39
70902;BME280;58548;47.210;8.618;2023-08-12T00:16:48;94538.41;;;27.01;39.90
70902;BME280;58548;47.210;8.618;2023-08-12T00:19:14;94575.72;;;27.21;39.57
70902;BME280;58548;47.210;8.618;2023-08-12T00:21:42;94542.97;;;27.00;39.85
70902;BME280;58548;47.210;8.618;2023-08-12T00:24:11;94539.19;;;27.01;39.57
70902;BME280;58548;47.210;8.618;2023-08-12T00:26:37;94565.56;;;27.18;39.52
70902;BME280;58548;47.210;8.618;2023-08-12T00:29:03;94533.03;;;27.01;40.11
70902;BME280;58548;47.210;8.618;2023-08-12T00:31:29;94522.88;;;26.98;40.03
70902;BME280;58548;47.210;8.618;2023-08-12T00:34:00;94521.84;;;26.93;39.59
70902;BME280;58548;47.210;8.618;2023-08-12T00:36:26;94555.97;;;27.12;40.33
70902;BME280;58548;47.210;8.618;2023-08-12T00:38:52;94504.56;;;26.75;39.98
70902;BME280;58548;47.210;8.618;2023-08-12T00:41:22;94529.34;;;26.91;39.54
70902;BME280;58548;47.210;8.618;2023-08-12T00:43:49;94553.88;;;27.09;39.54
70902;BME280;58548;47.210;8.618;2023-08-12T00:46:15;94548.06;;;26.97;40.11
70902;BME280;58548;47.210;8.618;2023-08-12T00:48:41;94519.84;;;26.75;40.04
70902;BME280;58548;47.210;8.618;2023-08-12T00:51:07;94540.66;;;26.88;40.13
70902;BME280;58548;47.210;8.618;2023-08-12T00:53:34;94558.56;;;26.93;40.59
70902;BME280;58548;47.210;8.618;2023-08-12T00:56:00;94559.34;;;26.93;40.21
70902;BME280;58548;47.210;8.618;2023-08-12T00:58:27;94564.19;;;26.91;40.06
70902;BME280;58548;47.210;8.618;2023-08-12T01:00:53;94566.38;;;26.89;39.53
70902;BME280;58548;47.210;8.618;2023-08-12T01:03:24;94561.84;;;26.85;39.69
70902;BME280;58548;47.210;8.618;2023-08-12T01:05:50;94559.47;;;26.83;40.48
70902;BME280;58548;47.210;8.618;2023-08-12T01:08:18;94526.94;;;26.60;40.76
70902;BME280;58548;47.210;8.618;2023-08-12T01:10:54;94556.25;;;26.81;40.05
70902;BME280;58548;47.210;8.618;2023-08-12T01:13:32;94538.88;;;26.73;39.98
70902;BME280;58548;47.210;8.618;2023-08-12T01:16:05;94546.06;;;26.78;40.16
70902;BME280;58548;47.210;8.618;2023-08-12T01:18:38;94510.34;;;26.58;40.09
70902;BME280;58548;47.210;8.618;2023-08-12T01:21:10;94547.16;;;26.77;40.17
70902;BME280;58548;47.210;8.618;2023-08-12T01:23:47;94548.22;;;26.76;40.38
70902;BME280;58548;47.210;8.618;2023-08-12T01:26:13;94528.00;;;26.59;40.59
70902;BME280;58548;47.210;8.618;2023-08-12T01:28:41;94517.84;;;26.56;40.89
70902;BME280;58548;47.210;8.618;2023-08-12T01:31:18;94542.34;;;26.74;40.36
70902;BME280;58548;47.210;8.618;2023-08-12T01:33:57;94549.81;;;26.77;39.97
70902;BME280;58548;47.210;8.618;2023-08-12T01:36:27;94526.88;;;26.66;40.30
70902;BME280;58548;47.210;8.618;2023-08-12T01:38:57;94543.38;;;26.78;41.11
70902;BME280;58548;47.210;8.618;2023-08-12T01:41:25;94549.28;;;26.80;41.06
70902;BME280;58548;47.210;8.618;2023-08-12T01:43:52;94527.91;;;26.70;40.88
70902;BME280;58548;47.210;8.618;2023-08-12T01:46:18;94525.00;;;26.66;40.92
70902;BME280;58548;47.210;8.618;2023-08-12T01:48:44;94496.19;;;26.53;40.28
70902;BME280;58548;47.210;8.618;2023-08-12T01:51:13;94531.59;;;26.79;40.79
70902;BME280;58548;47.210;8.618;2023-08-12T01:53:41;94491.63;;;26.53;40.54
70902;BME280;58548;47.210;8.618;2023-08-12T01:56:07;94534.00;;;26.81;40.19
70902;BME280;58548;47.210;8.618;2023-08-12T01:58:33;94528.94;;;26.74;40.90
70902;BME280;58548;47.210;8.618;2023-08-12T02:00:59;94517.78;;;26.67;40.42
70902;BME280;58548;47.210;8.618;2023-08-12T02:03:28;94527.09;;;26.74;40.01
70902;BME280;58548;47.210;8.618;2023-08-12T02:05:56;94540.72;;;26.78;40.06
70902;BME280;58548;47.210;8.618;2023-08-12T02:08:27;94537.25;;;26.77;40.43
70902;BME280;58548;47.210;8.618;2023-08-12T02:10:53;94490.56;;;26.49;40.59
70902;BME280;58548;47.210;8.618;2023-08-12T02:13:23;94508.22;;;26.55;40.39
70902;BME280;58548;47.210;8.618;2023-08-12T02:15:51;94500.19;;;26.55;41.27
70902;BME280;58548;47.210;8.618;2023-08-12T02:18:17;94526.78;;;26.76;40.50
70902;BME280;58548;47.210;8.618;2023-08-12T02:20:43;94523.03;;;26.77;40.49
70902;BME280;58548;47.210;8.618;2023-08-12T02:23:09;94518.75;;;26.81;40.64
70902;BME280;58548;47.210;8.618;2023-08-12T02:25:35;94481.91;;;26.62;40.61
70902;BME280;58548;47.210;8.618;2023-08-12T02:28:01;94492.47;;;26.78;41.11
70902;BME280;58548;47.210;8.618;2023-08-12T02:30:29;94520.38;;;27.06;40.88
70902;BME280;58548;47.210;8.618;2023-08-12T02:32:56;94488.56;;;27.00;40.96
70902;BME280;58548;47.210;8.618;2023-08-12T02:35:22;94440.03;;;26.72;40.85
70902;BME280;58548;47.210;8.618;2023-08-12T02:37:50;94479.97;;;27.03;40.85
70902;BME280;58548;47.210;8.618;2023-08-12T02:40:18;94503.81;;;27.29;40.95
70902;BME280;58548;47.210;8.618;2023-08-12T02:42:45;94501.34;;;27.32;40.69
70902;BME280;58548;47.210;8.618;2023-08-12T02:45:16;94485.41;;;27.22;40.21
70902;BME280;58548;47.210;8.618;2023-08-12T02:47:44;94480.81;;;27.22;40.63
70902;BME280;58548;47.210;8.618;2023-08-12T02:50:12;94487.22;;;27.27;40.19
70902;BME280;58548;47.210;8.618;2023-08-12T02:52:38;94496.50;;;27.34;40.31
70902;BME280;58548;47.210;8.618;2023-08-12T02:55:04;94514.38;;;27.44;40.10
70902;BME280;58548;47.210;8.618;2023-08-12T02:57:30;94480.25;;;27.26;40.95
70902;BME280;58548;47.210;8.618;2023-08-12T02:59:56;94477.06;;;27.23;39.98
70902;BME280;58548;47.210;8.618;2023-08-12T03:02:25;94506.31;;;27.44;40.77
70902;BME280;58548;47.210;8.618;2023-08-12T03:04:51;94481.28;;;27.30;40.00
70902;BME280;58548;47.210;8.618;2023-08-12T03:07:20;94499.41;;;27.38;39.84
70902;BME280;58548;47.210;8.618;2023-08-12T03:09:46;94480.03;;;27.22;40.14
70902;BME280;58548;47.210;8.618;2023-08-12T03:12:14;94480.81;;;27.22;40.06
70902;BME280;58548;47.210;8.618;2023-08-12T03:14:41;94509.56;;;27.41;40.78
70902;BME280;58548;47.210;8.618;2023-08-12T03:17:07;94487.25;;;27.21;40.64
70902;BME280;58548;47.210;8.618;2023-08-12T03:19:33;94514.16;;;27.41;39.94
70902;BME280;58548;47.210;8.618;2023-08-12T03:22:01;94503.47;;;27.35;40.61
70902;BME280;58548;47.210;8.618;2023-08-12T03:24:28;94504.56;;;27.34;40.37
70902;BME280;58548;47.210;8.618;2023-08-12T03:26:59;94500.31;;;27.28;40.54
70902;BME280;58548;47.210;8.618;2023-08-12T03:29:25;94464.38;;;27.05;40.89
70902;BME280;58548;47.210;8.618;2023-08-12T03:31:51;94463.56;;;27.04;40.52
70902;BME280;58548;47.210;8.618;2023-08-12T03:34:19;94485.97;;;27.19;40.20
70902;BME280;58548;47.210;8.618;2023-08-12T03:36:47;94487.31;;;27.16;39.83
70902;BME280;58548;47.210;8.618;2023-08-12T03:39:14;94479.34;;;27.11;40.78
70902;BME280;58548;47.210;8.618;2023-08-12T03:41:40;94486.53;;;27.16;40.49
70902;BME280;58548;47.210;8.618;2023-08-12T03:44:08;94508.31;;;27.33;40.19
70902;BME280;58548;47.210;8.618;2023-08-12T03:46:39;94492.31;;;27.23;40.52
70902;BME280;58548;47.210;8.618;2023-08-12T03:49:04;94478.19;;;27.17;40.48
70902;BME280;58548;47.210;8.618;2023-08-12T03:51:33;94482.41;;;27.23;39.84
70902;BME280;58548;47.210;8.618;2023-08-12T03:53:59;94480.25;;;27.26;40.33
70902;BME280;58548;47.210;8.618;2023-08-12T03:56:25;94473.13;;;27.16;39.80
70902;BME280;58548;47.210;8.618;2023-08-12T03:58:51;94502.34;;;27.42;39.83
70902;BME280;58548;47.210;8.618;2023-08-12T04:01:17;94510.31;;;27.47;40.78
70902;BME280;58548;47.210;8.618;2023-08-12T04:03:43;94495.38;;;27.41;40.94
70902;BME280;58548;47.210;8.618;2023-08-12T04:06:09;94502.56;;;27.45;40.87
70902;BME280;58548;47.210;8.618;2023-08-12T04:08:38;94488.47;;;27.34;40.47
70902;BME280;58548;47.210;8.618;2023-08-12T04:11:04;94514.84;;;27.51;40.52
70902;BME280;58548;47.210;8.618;2023-08-12T04:13:33;94511.88;;;27.53;40.88
70902;BME280;58548;47.210;8.618;2023-08-12T04:15:59;94475.31;;;27.33;41.32
70902;BME280;58548;47.210;8.618;2023-08-12T04:18:27;94481.72;;;27.37;40.85
70902;BME280;58548;47.210;8.618;2023-08-12T04:20:54;94502.38;;;27.61;40.53
70902;BME280;58548;47.210;8.618;2023-08-12T04:23:21;94476.50;;;27.51;40.91
70902;BME280;58548;47.210;8.618;2023-08-12T04:25:49;94475.72;;;27.50;40.17
70902;BME280;58548;47.210;8.618;2023-08-12T04:28:16;94490.31;;;27.63;40.57
70902;BME280;58548;47.210;8.618;2023-08-12T04:30:43;94467.88;;;27.54;40.67
70902;BME280;58548;47.210;8.618;2023-08-12T04:33:09;94492.06;;;27.73;40.96
70902;BME280;58548;47.210;8.618;2023-08-12T04:35:39;94470.78;;;27.58;40.67
70902;BME280;58548;47.210;8.618;2023-08-12T04:38:05;94459.63;;;27.50;41.13
70902;BME280;58548;47.210;8.618;2023-08-12T04:40:32;94463.09;;;27.51;40.60
70902;BME280;58548;47.210;8.618;2023-08-12T04:43:01;94485.16;;;27.67;40.28
70902;BME280;58548;47.210;8.618;2023-08-12T04:45:27;94479.13;;;27.75;40.40
70902;BME280;58548;47.210;8.618;2023-08-12T04:47:57;94498.00;;;27.89;41.07
70902;BME280;58548;47.210;8.618;2023-08-12T04:50:22;94467.91;;;27.73;40.91
70902;BME280;58548;47.210;8.618;2023-08-12T04:52:49;94482.00;;;27.84;40.25
70902;BME280;58548;47.210;8.618;2023-08-12T04:55:15;94510.91;;;28.11;40.46
70902;BME280;58548;47.210;8.618;2023-08-12T04:57:41;94511.91;;;28.16;40.54
70902;BME280;58548;47.210;8.618;2023-08-12T05:00:07;94465.00;;;27.89;40.08
70902;BME280;58548;47.210;8.618;2023-08-12T05:02:35;94448.47;;;27.81;40.27
70902;BME280;58548;47.210;8.618;2023-08-12T05:05:02;94506.19;;;28.22;40.02
70902;BME280;58548;47.210;8.618;2023-08-12T05:07:30;94476.25;;;28.10;40.27
70902;BME280;58548;47.210;8.618;2023-08-12T05:09:57;94474.41;;;28.10;40.63
70902;BME280;58548;47.210;8.618;2023-08-12T05:12:25;94487.38;;;28.22;40.13
70902;BME280;58548;47.210;8.618;2023-08-12T05:14:53;94473.38;;;28.25;39.86
70902;BME280;58548;47.210;8.618;2023-08-12T05:17:22;94494.25;;;28.48;39.83
70902;BME280;58548;47.210;8.618;2023-08-12T05:19:50;94501.53;;;28.61;39.65
70902;BME280;58548;47.210;8.618;2023-08-12T05:22:17;94486.44;;;28.65;39.76
70902;BME280;58548;47.210;8.618;2023-08-12T05:24:43;94465.53;;;28.62;39.69
70902;BME280;58548;47.210;8.618;2023-08-12T05:27:08;94496.78;;;28.91;39.62
70902;BME280;58548;47.210;8.618;2023-08-12T05:29:35;94478.03;;;28.86;40.16
70902;BME280;58548;47.210;8.618;2023-08-12T05:32:00;94491.13;;;29.07;40.14
70902;BME280;58548;47.210;8.618;2023-08-12T05:34:26;94485.66;;;29.12;39.84
70902;BME280;58548;47.210;8.618;2023-08-12T05:36:54;94463.34;;;28.97;39.49
70902;BME280;58548;47.210;8.618;2023-08-12T05:39:20;94482.38;;;29.15;39.63
70902;BME280;58548;47.210;8.618;2023-08-12T05:41:47;94472.41;;;29.15;39.56
70902;BME280;58548;47.210;8.618;2023-08-12T05:44:13;94482.16;;;29.25;39.38
70902;BME280;58548;47.210;8.618;2023-08-12T05:46:42;94505.53;;;29.44;39.54
70902;BME280;58548;47.210;8.618;2023-08-12T05:49:08;94508.09;;;29.49;39.71
70902;BME280;58548;47.210;8.618;2023-08-12T05:51:34;94510.28;;;29.47;39.32
70902;BME280;58548;47.210;8.618;2023-08-12T05:54:00;94482.00;;;29.36;38.85
70902;BME280;58548;47.210;8.618;2023-08-12T05:56:27;94510.50;;;29.64;38.57
70902;BME280;58548;47.210;8.618;2023-08-12T05:58:52;94512.47;;;29.73;38.61
70902;BME280;58548;47.210;8.618;2023-08-12T06:01:21;94514.47;;;29.81;38.88
70902;BME280;58548;47.210;8.618;2023-08-12T06:03:50;94490.94;;;29.73;38.17
70902;BME280;58548;47.210;8.618;2023-08-12T06:06:18;94489.16;;;29.82;38.44
70902;BME280;58548;47.210;8.618;2023-08-12T06:08:44;94489.72;;;29.93;37.96
70902;BME280;58548;47.210;8.618;2023-08-12T06:11:10;94515.31;;;30.18;38.15
70902;BME280;58548;47.210;8.618;2023-08-12T06:13:38;94500.25;;;30.17;38.32
70902;BME280;58548;47.210;8.618;2023-08-12T06:16:07;94442.97;;;29.89;37.97
70902;BME280;58548;47.210;8.618;2023-08-12T06:18:36;94490.88;;;30.29;37.74
70902;BME280;58548;47.210;8.618;2023-08-12T06:21:02;94508.31;;;30.54;37.19
70902;BME280;58548;47.210;8.618;2023-08-12T06:23:28;94503.63;;;30.60;37.17
70902;BME280;58548;47.210;8.618;2023-08-12T06:25:55;94490.22;;;30.54;36.96
70902;BME280;58548;47.210;8.618;2023-08-12T06:28:23;94489.03;;;30.61;37.19
70902;BME280;58548;47.210;8.618;2023-08-12T06:30:54;94503.00;;;30.86;36.60
70902;BME280;58548;47.210;8.618;2023-08-12T06:33:21;94510.81;;;30.96;36.79
70902;BME280;58548;47.210;8.618;2023-08-12T06:35:50;94495.56;;;30.91;36.76
70902;BME280;58548;47.210;8.618;2023-08-12T06:38:17;94519.03;;;31.13;36.26
70902;BME280;58548;47.210;8.618;2023-08-12T06:40:43;94491.06;;;31.09;36.47
70902;BME280;58548;47.210;8.618;2023-08-12T06:43:11;94490.44;;;31.12;36.46
70902;BME280;58548;47.210;8.618;2023-08-12T06:45:40;94511.50;;;31.33;36.59
70902;BME280;58548;47.210;8.618;2023-08-12T06:48:07;94516.63;;;31.43;36.22
70902;BME280;58548;47.210;8.618;2023-08-12T06:50:32;94477.66;;;31.18;35.61
70902;BME280;58548;47.210;8.618;2023-08-12T06:52:59;94502.03;;;31.44;36.13
70902;BME280;58548;47.210;8.618;2023-08-12T06:55:25;94509.38;;;31.53;36.02
70902;BME280;58548;47.210;8.618;2023-08-12T06:57:51;94496.78;;;31.48;35.67
70902;BME280;58548;47.210;8.618;2023-08-12T07:00:20;94477.13;;;31.48;36.25
70902;BME280;58548;47.210;8.618;2023-08-12T07:02:46;94510.28;;;31.97;36.10
70902;BME280;58548;47.210;8.618;2023-08-12T07:05:13;94489.19;;;32.17;35.29
70902;BME280;58548;47.210;8.618;2023-08-12T07:07:39;94518.41;;;32.68;34.60
70902;BME280;58548;47.210;8.618;2023-08-12T07:10:05;94488.84;;;32.80;34.73
70902;BME280;58548;47.210;8.618;2023-08-12T07:12:32;94504.47;;;33.22;34.22
70902;BME280;58548;47.210;8.618;2023-08-12T07:15:02;94516.13;;;33.61;33.57
70902;BME280;58548;47.210;8.618;2023-08-12T07:17:30;94493.88;;;33.86;32.58
70902;BME280;58548;47.210;8.618;2023-08-12T07:20:06;94535.44;;;34.41;32.16
70902;BME280;58548;47.210;8.618;2023-08-12T07:22:32;94510.31;;;34.53;30.68
70902;BME280;58548;47.210;8.618;2023-08-12T07:25:01;94522.16;;;34.82;30.23
70902;BME280;58548;47.210;8.618;2023-08-12T07:27:28;94528.25;;;35.00;30.36
70902;BME280;58548;47.210;8.618;2023-08-12T07:29:56;94508.69;;;34.94;30.01
70902;BME280;58548;47.210;8.618;2023-08-12T07:32:26;94520.69;;;35.06;30.66
70902;BME280;58548;47.210;8.618;2023-08-12T07:34:53;94520.69;;;35.06;29.69
70902;BME280;58548;47.210;8.618;2023-08-12T07:37:21;94525.91;;;35.23;30.15
70902;BME280;58548;47.210;8.618;2023-08-12T07:39:49;94523.72;;;35.50;30.06
70902;BME280;58548;47.210;8.618;2023-08-12T07:42:15;94518.72;;;35.89;29.57
70902;BME280;58548;47.210;8.618;2023-08-12T07:44:44;94525.91;;;36.47;29.60
70902;BME280;58548;47.210;8.618;2023-08-12T07:47:13;94515.03;;;37.04;28.41
70902;BME280;58548;47.210;8.618;2023-08-12T07:49:43;94528.28;;;37.50;27.70
70902;BME280;58548;47.210;8.618;2023-08-12T07:52:12;94533.53;;;37.91;26.95
70902;BME280;58548;47.210;8.618;2023-08-12T07:54:42;94528.88;;;38.27;26.47
70902;BME280;58548;47.210;8.618;2023-08-12T07:57:11;94495.03;;;38.48;25.89
70902;BME280;58548;47.210;8.618;2023-08-12T07:59:41;94498.44;;;39.04;25.47
70902;BME280;58548;47.210;8.618;2023-08-12T08:02:08;94499.63;;;39.49;25.13
70902;BME280;58548;47.210;8.618;2023-08-12T08:04:38;94491.31;;;39.92;24.81
70902;BME280;58548;47.210;8.618;2023-08-12T08:07:04;94523.59;;;40.67;23.51
70902;BME280;58548;47.210;8.618;2023-08-12T08:09:34;94525.97;;;41.07;22.43
70902;BME280;58548;47.210;8.618;2023-08-12T08:12:00;94525.72;;;41.19;22.51
70902;BME280;58548;47.210;8.618;2023-08-12T08:14:27;94534.28;;;41.55;22.62
70902;BME280;58548;47.210;8.618;2023-08-12T08:16:55;94508.97;;;41.73;21.60
70902;BME280;58548;47.210;8.618;2023-08-12T08:19:23;94542.28;;;42.34;20.94
70902;BME280;58548;47.210;8.618;2023-08-12T08:21:50;94544.41;;;42.70;20.50
70902;BME280;58548;47.210;8.618;2023-08-12T08:24:16;94528.06;;;42.99;19.62
70902;BME280;58548;47.210;8.618;2023-08-12T08:26:42;94512.81;;;43.27;19.78
70902;BME280;58548;47.210;8.618;2023-08-12T08:29:11;94529.72;;;43.62;19.17
70902;BME280;58548;47.210;8.618;2023-08-12T08:31:39;94536.41;;;43.86;18.99
70902;BME280;58548;47.210;8.618;2023-08-12T08:34:06;94549.78;;;43.95;18.11
70902;BME280;58548;47.210;8.618;2023-08-12T08:36:32;94524.63;;;43.53;18.41
70902;BME280;58548;47.210;8.618;2023-08-12T08:39:00;94572.94;;;43.54;18.97
70902;BME280;58548;47.210;8.618;2023-08-12T08:41:31;94569.41;;;43.43;19.41
70902;BME280;58548;47.210;8.618;2023-08-12T08:44:02;94549.75;;;43.51;19.18
70902;BME280;58548;47.210;8.618;2023-08-12T08:46:33;94578.84;;;44.07;19.20
70902;BME280;58548;47.210;8.618;2023-08-12T08:48:59;94563.84;;;44.40;18.54
70902;BME280;58548;47.210;8.618;2023-08-12T08:51:32;94566.44;;;44.98;17.09
70902;BME280;58548;47.210;8.618;2023-08-12T08:53:58;94594.94;;;45.44;16.43
70902;BME280;58548;47.210;8.618;2023-08-12T08:56:25;94587.09;;;45.39;16.82
70902;BME280;58548;47.210;8.618;2023-08-12T08:58:54;94594.97;;;45.41;16.56
70902;BME280;58548;47.210;8.618;2023-08-12T09:01:22;94587.97;;;45.22;16.58
70902;BME280;58548;47.210;8.618;2023-08-12T09:03:52;94597.50;;;45.06;16.55
70902;BME280;58548;47.210;8.618;2023-08-12T09:06:25;94607.84;;;44.69;16.81
70902;BME280;58548;47.210;8.618;2023-08-12T09:08:54;94588.28;;;44.20;17.24
70902;BME280;58548;47.210;8.618;2023-08-12T09:11:21;94580.44;;;43.68;18.00
70902;BME280;58548;47.210;8.618;2023-08-12T09:13:52;94587.06;;;43.42;17.94
70902;BME280;58548;47.210;8.618;2023-08-12T09:16:18;94612.91;;;43.22;17.93
70902;BME280;58548;47.210;8.618;2023-08-12T09:18:45;94617.09;;;42.91;17.99
70902;BME280;58548;47.210;8.618;2023-08-12T09:21:15;94596.47;;;42.48;18.61
70902;BME280;58548;47.210;8.618;2023-08-12T09:23:43;94603.38;;;42.24;18.80
70902;BME280;58548;47.210;8.618;2023-08-12T09:26:19;94585.00;;;41.80;19.08
70902;BME280;58548;47.210;8.618;2023-08-12T09:28:53;94612.44;;;41.83;19.20
70902;BME280;58548;47.210;8.618;2023-08-12T09:31:30;94626.41;;;41.67;20.35
70902;BME280;58548;47.210;8.618;2023-08-12T09:34:00;94592.66;;;41.22;21.32
70902;BME280;58548;47.210;8.618;2023-08-12T09:36:33;94609.03;;;41.14;20.71
70902;BME280;58548;47.210;8.618;2023-08-12T09:39:00;94632.22;;;41.24;20.57
70902;BME280;58548;47.210;8.618;2023-08-12T09:41:29;94635.16;;;41.08;21.29
70902;BME280;58548;47.210;8.618;2023-08-12T09:43:55;94642.81;;;40.95;21.06
70902;BME280;58548;47.210;8.618;2023-08-12T09:46:25;94638.63;;;40.75;21.23
70902;BME280;58548;47.210;8.618;2023-08-12T09:48:52;94640.63;;;40.51;21.54
70902;BME280;58548;47.210;8.618;2023-08-12T09:51:21;94615.00;;;40.09;21.64
70902;BME280;58548;47.210;8.618;2023-08-12T09:53:51;94644.66;;;40.07;21.74
70902;BME280;58548;47.210;8.618;2023-08-12T09:56:23;94615.63;;;39.75;22.22
70902;BME280;58548;47.210;8.618;2023-08-12T09:58:50;94626.22;;;39.57;22.73
70902;BME280;58548;47.210;8.618;2023-08-12T10:01:22;94646.00;;;39.50;23.06
70902;BME280;58548;47.210;8.618;2023-08-12T10:03:50;94630.63;;;39.22;23.48
70902;BME280;58548;47.210;8.618;2023-08-12T10:06:20;94652.13;;;39.24;24.45
70902;BME280;58548;47.210;8.618;2023-08-12T10:08:50;94616.97;;;39.22;24.20
70902;BME280;58548;47.210;8.618;2023-08-12T10:11:16;94645.09;;;39.66;23.24
70902;BME280;58548;47.210;8.618;2023-08-12T10:13:45;94651.94;;;39.99;22.24
70902;BME280;58548;47.210;8.618;2023-08-12T10:16:17;94628.91;;;39.77;22.46
70902;BME280;58548;47.210;8.618;2023-08-12T10:18:50;94648.16;;;39.61;23.42
70902;BME280;58548;47.210;8.618;2023-08-12T10:21:18;94638.38;;;39.20;24.59
70902;BME280;58548;47.210;8.618;2023-08-12T10:23:45;94634.94;;;38.84;24.79
70902;BME280;58548;47.210;8.618;2023-08-12T10:26:14;94663.13;;;38.72;25.09
70902;BME280;58548;47.210;8.618;2023-08-12T10:28:40;94633.22;;;38.24;25.52
70902;BME280;58548;47.210;8.618;2023-08-12T10:31:11;94638.22;;;38.06;26.00
70902;BME280;58548;47.210;8.618;2023-08-12T10:33:41;94640.13;;;37.74;26.85
70902;BME280;58548;47.210;8.618;2023-08-12T10:36:08;94648.91;;;37.51;27.55
70902;BME280;58548;47.210;8.618;2023-08-12T10:38:35;94645.72;;;37.20;28.01
70902;BME280;58548;47.210;8.618;2023-08-12T10:41:18;94646.63;;;36.96;28.33
70902;BME280;58548;47.210;8.618;2023-08-12T10:44:08;94626.75;;;36.55;28.87
70902;BME280;58548;47.210;8.618;2023-08-12T10:46:37;94658.50;;;36.50;29.72
70902;BME280;58548;47.210;8.618;2023-08-12T10:49:11;94651.22;;;36.30;30.38
70902;BME280;58548;47.210;8.618;2023-08-12T10:51:41;94657.91;;;36.20;30.93
70902;BME280;58548;47.210;8.618;2023-08-12T10:54:20;94639.88;;;35.90;31.30
70902;BME280;58548;47.210;8.618;2023-08-12T11:02:26;94647.97;;;35.53;31.37
70902;BME280;58548;47.210;8.618;2023-08-12T11:05:11;94667.09;;;35.57;32.16
70902;BME280;58548;47.210;8.618;2023-08-12T11:07:38;94674.88;;;35.46;31.95
70902;BME280;58548;47.210;8.618;2023-08-12T11:10:26;94667.78;;;35.32;32.28
70902;BME280;58548;47.210;8.618;2023-08-12T11:15:36;94644.66;;;35.14;32.30
70902;BME280;58548;47.210;8.618;2023-08-12T11:18:13;94618.66;;;34.70;32.75
70902;BME280;58548;47.210;8.618;2023-08-12T11:20:43;94616.13;;;34.65;33.01
70902;BME280;58548;47.210;8.618;2023-08-12T11:23:10;94629.50;;;34.70;32.53
70902;BME280;58548;47.210;8.618;2023-08-12T11:25:39;94631.22;;;34.75;33.24
70902;BME280;58548;47.210;8.618;2023-08-12T11:28:07;94623.84;;;34.76;33.19
70902;BME280;58548;47.210;8.618;2023-08-12T11:30:35;94574.47;;;34.49;33.98
70902;BME280;58548;47.210;8.618;2023-08-12T11:33:04;94614.41;;;34.82;34.02
70902;BME280;58548;47.210;8.618;2023-08-12T11:35:32;94594.16;;;34.79;35.36
70902;BME280;58548;47.210;8.618;2023-08-12T11:38:01;94573.41;;;34.62;35.20
70902;BME280;58548;47.210;8.618;2023-08-12T11:40:28;94590.44;;;34.84;34.59
70902;BME280;58548;47.210;8.618;2023-08-12T11:42:55;94601.97;;;34.81;34.80
70902;BME280;58548;47.210;8.618;2023-08-12T11:45:27;94593.63;;;34.86;34.85
70902;BME280;58548;47.210;8.618;2023-08-12T11:47:56;94584.38;;;34.87;34.66
70902;BME280;58548;47.210;8.618;2023-08-12T11:50:26;94562.06;;;35.02;33.98
70902;BME280;58548;47.210;8.618;2023-08-12T11:52:54;94577.31;;;35.41;33.33
70902;BME280;58548;47.210;8.618;2023-08-12T11:55:25;94559.69;;;35.59;33.18
70902;BME280;58548;47.210;8.618;2023-08-12T11:57:51;94593.94;;;36.10;33.54
70902;BME280;58548;47.210;8.618;2023-08-12T12:00:18;94578.94;;;36.29;32.27
70902;BME280;58548;47.210;8.618;2023-08-12T12:02:49;94583.91;;;36.64;31.85
70902;BME280;58548;47.210;8.618;2023-08-12T12:05:20;94558.84;;;36.87;31.82
70902;BME280;58548;47.210;8.618;2023-08-12T12:07:50;94571.63;;;37.27;31.14
70902;BME280;58548;47.210;8.618;2023-08-12T12:10:20;94570.97;;;37.62;29.63
70902;BME280;58548;47.210;8.618;2023-08-12T12:12:50;94561.47;;;37.88;28.11
70902;BME280;58548;47.210;8.618;2023-08-12T12:15:20;94554.41;;;38.19;28.70
70902;BME280;58548;47.210;8.618;2023-08-12T12:17:50;94558.06;;;38.63;27.64
70902;BME280;58548;47.210;8.618;2023-08-12T12:20:17;94537.88;;;38.67;26.83
70902;BME280;58548;47.210;8.618;2023-08-12T12:22:44;94538.03;;;38.94;27.58
70902;BME280;58548;47.210;8.618;2023-08-12T12:25:16;94520.66;;;39.26;26.03
70902;BME280;58548;47.210;8.618;2023-08-12T12:27:52;94543.50;;;39.84;25.60
70902;BME280;58548;47.210;8.618;2023-08-12T12:30:22;94522.78;;;40.09;25.43
70902;BME280;58548;47.210;8.618;2023-08-12T12:32:48;94550.00;;;40.56;24.46
70902;BME280;58548;47.210;8.618;2023-08-12T12:35:16;94523.59;;;40.67;22.48
70902;BME280;58548;47.210;8.618;2023-08-12T12:37:42;94524.16;;;40.84;23.32
70902;BME280;58548;47.210;8.618;2023-08-12T12:40:09;94545.22;;;41.14;22.24
70902;BME280;58548;47.210;8.618;2023-08-12T12:42:38;94541.56;;;41.03;20.49
70902;BME280;58548;47.210;8.618;2023-08-12T12:45:04;94518.75;;;40.91;21.45
70902;BME280;58548;47.210;8.618;2023-08-12T12:47:30;94547.63;;;41.19;21.50
70902;BME280;58548;47.210;8.618;2023-08-12T12:49:57;94535.69;;;41.04;21.39
70902;BME280;58548;47.210;8.618;2023-08-12T12:52:26;94533.34;;;41.03;21.53
70902;BME280;58548;47.210;8.618;2023-08-12T12:54:52;94524.16;;;40.84;20.56
70902;BME280;58548;47.210;8.618;2023-08-12T12:57:19;94547.38;;;40.97;20.21
70902;BME280;58548;47.210;8.618;2023-08-12T12:59:45;94497.75;;;40.68;21.52
70902;BME280;58548;47.210;8.618;2023-08-12T13:02:11;94535.25;;;40.98;22.46
70902;BME280;58548;47.210;8.618;2023-08-12T13:04:37;94533.25;;;40.95;24.01
70902;BME280;58548;47.210;8.618;2023-08-12T13:07:06;94492.34;;;40.72;24.49
70902;BME280;58548;47.210;8.618;2023-08-12T13:09:32;94541.97;;;41.05;25.00
70902;BME280;58548;47.210;8.618;2023-08-12T13:11:58;94525.03;;;40.95;25.30
70902;BME280;58548;47.210;8.618;2023-08-12T13:14:27;94536.91;;;41.07;25.18